• Join FlightAware (Why Join?)
  • Login
  • US Flag 
06:37PM EDT


 

Airport Tracker/Info


-or-


 

Live Flight TrackerFlight Track Log ✈ EJA922 ✈ 05-Sep-2013 ✈ KBCT - KTVC

Flight Track Log - Related Links

Times and Time Zones

All times are in EDT time to prevent confusion due to time zone crossing. See the EJA922 flight status page for this flight to view local times or setup timezone preferences in your user account.

Time Position Orientation Groundspeed Altitude Reporting Facility
EDT Latitude Longitude Course Direction KTS MPH feet Rate Location/Type
11:22AM 26.4539 -80.1031 318° Northwest 223 257 3,800  Level Miami Center
11:23AM 26.4708 -80.1778 284° West 250 288 5,000 1,140 Climbing Miami Center
11:24AM 26.4814 -80.2617 278° West 270 311 6,100 1,800 Climbing Miami Center
11:25AM 26.4900 -80.3478 276° West 286 329 8,600 2,220 Climbing Miami Center
11:26AM 26.5381 -80.4328 302° West 304 350 10,600 1,800 Climbing Miami Center
11:27AM 26.6268 -80.8602 318° Northwest  Level FlightAware Approximate
11:27AM 26.6028 -80.5136 312° West 329 379 12,300  Level Miami Center
11:28AM 26.6897 -80.5489 340° North 349 402 14,000 1,800 Climbing Miami Center
11:29AM 26.8033 -80.5875 343° North 372 428 15,900 1,740 Climbing Miami Center
11:30AM 26.9006 -80.6231 342° North 399 459 17,500 1,560 Climbing Miami Center
11:31AM 27.0061 -80.6661 340° North 404 465 19,100 1,620 Climbing Miami Center
11:32AM 27.1114 -80.7047 342° North 404 465 20,800 1,560 Climbing Miami Center
11:33AM 27.2189 -80.7456 341° North 404 465 22,300 1,500 Climbing Miami Center
11:34AM 27.3411 -80.7869 343° North 409 471 23,800 1,380 Climbing Miami Center
11:35AM 27.4569 -80.8283 342° North 416 479 25,100 1,260 Climbing Miami Center
11:36AM 27.5683 -80.8722 341° North 421 484 26,400 1,140 Climbing Miami Center
11:37AM 27.6819 -80.9136 342° North 421 484 27,400 1,020 Climbing Miami Center
11:38AM 27.8058 -80.9603 342° North 438 504 28,500 1,020 Climbing Miami Center
11:39AM 27.9256 -81.0069 341° North 444 511 29,500 1,020 Climbing Miami Center
11:40AM 28.0475 -81.0514 342° North 451 519 30,600 1,200 Climbing Miami Center
11:41AM 28.1711 -81.1006 341° North 458 527 32,000 1,500 Climbing Miami Center
11:43AM 28.4372 -81.2047 341° North 453 521 35,500 1,620 Climbing Jacksonville Center
11:44AM 28.5608 -81.2497 342° North 453 521 37,300 1,800 Climbing Jacksonville Center
11:45AM 28.6806 -81.2975 341° North 458 527 39,100 1,380 Climbing Jacksonville Center
11:46AM 28.8022 -81.3406 343° North 458 527 40,100 840 Climbing Jacksonville Center
11:47AM 28.9236 -81.3886 341° North 458 527 40,800 420 Climbing Jacksonville Center
11:48AM 29.0517 -81.4389 341° North 463 533 41,000 60 Climbing Jacksonville Center
11:49AM 29.1836 -81.4892 342° North 480 552 41,000  Level Jacksonville Center
11:50AM 29.3242 -81.5469 340° North 486 559 41,000  Level Jacksonville Center
11:51AM 29.4542 -81.5975 341° North 492 566 41,000  Level Jacksonville Center
11:52AM 29.5861 -81.6508 341° North 492 566 41,000  Level Jacksonville Center
11:53AM 29.7161 -81.7042 340° North 492 566 41,000  Level Jacksonville Center
11:54AM 29.8461 -81.7600 340° North 492 566 41,000  Level Jacksonville Center
11:55AM 29.9758 -81.8158 340° North 492 566 41,000  Level Jacksonville Center
11:56AM 30.1100 -81.8650 342° North 492 566 41,000 -60 Level Jacksonville Center
11:57AM 30.2397 -81.9211 340° North 497 572 40,900  Descending Jacksonville Center
11:58AM 30.3717 -81.9753 340° North 497 572 41,000  Climbing Jacksonville Center
11:59AM 30.5017 -82.0319 339° North 492 566 40,900  Descending Jacksonville Center
12:00PM 30.6336 -82.0933 338° Northwest 502 578 41,000  Climbing Jacksonville Center
12:01PM 30.7633 -82.1481 340° North 502 578 41,000  Level Jacksonville Center
12:02PM 30.8911 -82.2028 340° North 491 565 41,000  Level Jacksonville Center
12:03PM 31.0208 -82.2597 339° North 491 565 41,000  Level Jacksonville Center
12:04PM 31.1483 -82.3147 340° North 491 565 41,000  Level Jacksonville Center
12:05PM 31.2781 -82.3700 340° North 491 565 41,000  Level Jacksonville Center
12:08PM 31.5867 -82.5006 340° North 490 564 41,000  Level Atlanta Center
12:09PM 31.7128 -82.5569 339° North 485 558 41,000  Level Atlanta Center
12:10PM 31.8406 -82.6111 340° North 485 558 41,000  Level Atlanta Center
12:11PM 31.9664 -82.6656 340° North 485 558 41,000  Level Atlanta Center
12:12PM 32.0944 -82.7222 339° North 485 558 41,000  Level Atlanta Center
12:13PM 32.2203 -82.7794 339° North 485 558 41,000  Level Atlanta Center
12:14PM 32.3461 -82.8342 340° North 485 558 41,000  Level Atlanta Center
12:15PM 32.4717 -82.8914 339° North 485 558 41,000  Level Atlanta Center
12:16PM 32.5997 -82.9492 339° North 485 558 41,000  Level Atlanta Center
12:17PM 32.7253 -83.0042 340° North 485 558 41,000  Level Atlanta Center
12:18PM 32.8469 -83.0597 339° North 478 550 41,000  Level Atlanta Center
12:19PM 32.9725 -83.1153 340° North 472 543 41,000  Level Atlanta Center
12:20PM 33.1003 -83.1758 338° Northwest 480 552 41,000  Level Atlanta Center
12:21PM 33.2281 -83.2292 341° North 486 559 41,000  Level Atlanta Center
12:22PM 33.3558 -83.2878 339° North 486 559 41,000  Level Atlanta Center
12:23PM 33.4792 -83.3414 340° North 486 559 41,000  Level Atlanta Center
12:24PM 33.6069 -83.4003 339° North 486 559 41,000  Level Atlanta Center
12:25PM 33.7322 -83.4567 339° North 484 557 41,000  Level Atlanta Center
12:26PM 33.8600 -83.5158 339° North 484 557 41,000  Level Atlanta Center
12:27PM 33.9875 -83.5728 340° North 484 557 41,000  Level Atlanta Center
12:28PM 34.1128 -83.6322 339° North 479 551 41,000  Level Atlanta Center
12:29PM 34.2383 -83.6894 339° North 479 551 41,000  Level Atlanta Center
12:30PM 34.3658 -83.7469 340° North 479 551 41,000  Level Atlanta Center
12:31PM 34.4892 -83.8069 338° Northwest 479 551 41,000  Level Atlanta Center
12:32PM 34.6144 -83.8622 340° North 479 551 41,000  Level Atlanta Center
12:33PM 34.7250 -83.9200 337° Northwest 474 545 41,000  Level Atlanta Center
12:34PM 34.8481 -83.9781 339° North 474 545 41,000  Level Atlanta Center
12:35PM 34.9714 -84.0336 340° North 474 545 41,000  Level Atlanta Center
12:36PM 35.0944 -84.0922 339° North 474 545 41,000  Level Atlanta Center
12:37PM 35.2175 -84.1506 339° North 474 545 41,000  Level Atlanta Center
12:38PM 35.3406 -84.2094 339° North 474 545 41,000  Level Atlanta Center
12:39PM 35.4656 -84.2683 339° North 474 545 41,000  Level Atlanta Center
12:40PM 35.5886 -84.3272 339° North 474 545 41,000  Level Atlanta Center
12:41PM 35.7094 -84.3867 338° Northwest 474 545 41,000 -180 Level Atlanta Center
12:42PM 35.8344 -84.4461 339° North 474 545 40,700 -420 Descending Atlanta Center
12:43PM 35.9553 -84.5031 339° North 474 545 40,200 -240 Descending Atlanta Center
12:45PM 36.2394 -84.6411 339° North 469 540 40,000 -120 Descending Indianapolis Center
12:46PM 36.3606 -84.7014 338° Northwest 471 542 40,000  Level Indianapolis Center
12:47PM 36.4814 -84.7608 338° Northwest 471 542 40,000  Level Indianapolis Center
12:48PM 36.6033 -84.8211 338° Northwest 471 542 40,000  Level Indianapolis Center
12:49PM 36.7261 -84.8825 338° Northwest 475 547 40,000  Level Indianapolis Center
12:50PM 36.8500 -84.9436 338° Northwest 479 551 40,000  Level Indianapolis Center
12:51PM 36.9975 -85.0189 338° Northwest 478 550 40,000  Level Indianapolis Center
12:52PM 37.1056 -85.0700 339° North 475 547 40,000  Level Indianapolis Center
12:53PM 37.2506 -85.1425 338° Northwest 478 550 40,000  Level Indianapolis Center
12:54PM 37.3847 -85.1625 353° North 488 562 40,000  Level Indianapolis Center
12:55PM 37.5186 -85.1694 358° North 484 557 40,000  Level Indianapolis Center
12:56PM 37.6525 -85.1789 357° North 480 552 40,000  Level Indianapolis Center
12:57PM 37.7869 -85.1858 358° North 481 554 40,000  Level Indianapolis Center
12:58PM 37.9256 -85.1894 359° North 492 566 40,000  Level Indianapolis Center
12:59PM 38.0728 -85.1992 357° North 491 565 40,000  Level Indianapolis Center
01:00PM 38.2083 -85.2056 358° North 488 562 40,000  Level Indianapolis Center
01:01PM 38.3442 -85.2128 358° North 489 563 40,000  Level Indianapolis Center
01:02PM 38.4794 -85.2200 358° North 487 560 40,000  Level Indianapolis Center
01:03PM 38.6425 -85.2275 358° North 488 562 40,000  Level Indianapolis Center
01:04PM 38.7639 -85.2353 357° North 486 559 40,000  Level Indianapolis Center
01:06PM 38.9011 -85.2417 358° North 492 566 40,000  Level Indianapolis Center
01:07PM 39.0625 -85.2508 357° North 488 562 40,000  Level Indianapolis Center
01:08PM 39.1975 -85.2572 358° North 489 563 40,000  Level Indianapolis Center
01:09PM 39.3319 -85.2650 357° North 487 560 40,000  Level Indianapolis Center
01:10PM 39.4672 -85.2731 357° North 490 564 40,000  Level Indianapolis Center
01:11PM 39.6033 -85.2794 358° North 493 567 40,000  Level Indianapolis Center
01:12PM 39.7372 -85.2867 358° North 488 562 40,000  Level Indianapolis Center
01:13PM 39.8997 -85.2964 357° North 490 564 40,000  Level Indianapolis Center
01:14PM 40.0347 -85.3033 358° North 490 564 40,000  Level Indianapolis Center
01:15PM 40.1700 -85.3103 358° North 490 564 40,000  Level Indianapolis Center
01:16PM 40.3064 -85.3178 358° North 493 567 40,000  Level Indianapolis Center
01:17PM 40.4136 -85.3231 358° North 490 564 40,000  Level Chicago Center
01:18PM 40.5486 -85.3322 357° North 489 563 40,000  Level Chicago Center
01:19PM 40.6922 -85.3386 358° North 491 565 40,000  Level Chicago Center
01:20PM 40.8281 -85.3467 357° North 490 564 40,000  Level Chicago Center
01:21PM 40.9647 -85.3558 357° North 491 565 40,000  Level Chicago Center
01:22PM 41.1000 -85.3628 358° North 487 560 40,000  Level Chicago Center
01:23PM 41.2636 -85.3711 358° North 490 564 40,000  Level Chicago Center
01:24PM 41.3992 -85.3797 357° North 490 564 40,000  Level Chicago Center
01:25PM 41.5336 -85.3886 357° North 488 562 40,000  Level Chicago Center
01:26PM 41.6728 -85.3983 357° North 494 568 40,000  Level Chicago Center
01:27PM 41.8250 -85.4058 358° North 493 567 40,000  Level Chicago Center
01:28PM 41.9611 -85.4142 357° North 489 563 40,000  Level Chicago Center
01:29PM 42.1069 -85.4222 358° North 486 559 40,000  Level Chicago Center
01:30PM 42.2428 -85.4306 357° North 488 562 40,000 -480 Level Chicago Center
01:31PM 42.3758 -85.4381 358° North 482 555 39,100 -960 Descending Chicago Center
01:32PM 42.5108 -85.4453 358° North 487 560 38,100 -1,020 Descending Chicago Center
01:33PM 42.6458 -85.4539 357° North 488 562 37,100 -1,500 Descending Chicago Center
01:34PM 42.8103 -85.4625 358° North 499 574 35,000 -1,800 Descending Chicago Center
01:35PM 42.9494 -85.4703 358° North 504 580 33,500 -1,560 Descending Chicago Center
01:36PM 43.0869 -85.4783 358° North 502 578 31,800 -1,980 Descending Chicago Center
01:37PM 43.2258 -85.4875 357° North 505 581 29,500 -2,580 Descending Chicago Center
01:38PM 43.3875 -85.4981 357° North 492 566 26,500 -2,640 Descending Chicago Center
01:39PM 43.5153 -85.5064 357° North 469 540 24,100 -1,260 Descending Chicago Center
01:40PM 43.6406 -85.5150 357° North 458 527 24,000 -540 Descending Chicago Center
01:41PM 43.7389 -85.5197 358° North 456 525 23,200 -1,980 Descending Minneapolis Center
01:42PM 43.8597 -85.5261 358° North 445 512 20,400 -2,700 Descending Minneapolis Center
01:43PM 43.9694 -85.5339 357° North 419 482 17,700 -2,580 Descending Minneapolis Center
01:44PM 44.0864 -85.5392 358° North 367 422 15,100 -2,280 Descending Minneapolis Center
01:45PM 44.1722 -85.5456 357° North 338 389 13,100 -1,800 Descending Minneapolis Center
01:46PM 44.2497 -85.5500 358° North 308 354 11,400 -1,680 Descending Minneapolis Center
01:47PM 44.3208 -85.5553 357° North 282 325 9,700 -1,800 Descending Minneapolis Center
01:48PM 44.3900 -85.5608 357° North 265 305 7,700 -2,040 Descending Minneapolis Center
01:49PM 44.4594 -85.5692 355° North 256 295 5,500 -2,520 Descending Minneapolis Center
01:50PM 44.5422 -85.5772 356° North 252 290 2,500 -1,560 Descending Minneapolis Center
01:51PM 44.6064 -85.5844 355° North 241 277 2,300 -120 Descending Minneapolis Center
01:53PM 44.6533 -85.5878 357° North 198 228 2,300 -360 Level Minneapolis Center
01:54PM 44.6922 -85.5881 360° North 168 193 1,600 -600 Descending Minneapolis Center
01:55PM 44.7283 -85.5881 360° North 146 168 1,100 -540 Descending Minneapolis Center
01:57PM 44.7333 -85.5667 North  Level FlightAware Approximate
02:04PM 44.7416 -85.5824 North  Level Estimated